createdAt,value
2023-04-18T00:02:18.824Z,26.80
2023-04-18T00:04:50.527Z,26.00
2023-04-18T00:07:21.826Z,28.80
2023-04-18T00:09:52.545Z,24.50
2023-04-18T00:12:23.274Z,26.50
2023-04-18T00:14:53.983Z,26.40
2023-04-18T00:17:26.721Z,29.30
2023-04-18T00:19:58.457Z,23.40
2023-04-18T00:22:29.195Z,22.70
2023-04-18T00:24:59.867Z,28.20
2023-04-18T00:27:30.588Z,25.90
2023-04-18T00:30:01.381Z,22.50
2023-04-18T00:32:32.255Z,23.60
2023-04-18T00:35:04.197Z,24.60
2023-04-18T00:37:34.919Z,24.40
2023-04-18T00:40:06.370Z,25.00
2023-04-18T00:42:37.066Z,20.70
2023-04-18T00:45:09.496Z,22.10
2023-04-18T00:47:41.248Z,23.40
2023-04-18T00:50:14.381Z,22.10
2023-04-18T00:52:46.941Z,25.80
2023-04-18T00:55:19.364Z,19.50
2023-04-18T00:57:50.058Z,21.60
2023-04-18T01:00:21.228Z,20.90
2023-04-18T01:02:53.371Z,23.60
2023-04-18T01:05:24.655Z,23.80
2023-04-18T01:07:58.819Z,20.80
2023-04-18T01:10:29.931Z,21.90
2023-04-18T01:13:18.098Z,20.60
2023-04-18T01:15:50.664Z,20.10
2023-04-18T01:18:22.660Z,26.50
2023-04-18T01:20:54.858Z,21.40
2023-04-18T01:23:26.010Z,22.30
2023-04-18T01:25:56.772Z,22.10
2023-04-18T01:28:29.974Z,22.60
2023-04-18T01:31:01.039Z,20.90
2023-04-18T01:33:32.377Z,24.80
2023-04-18T01:36:03.211Z,22.90
2023-04-18T01:38:34.909Z,20.20
2023-04-18T01:41:05.639Z,20.20
2023-04-18T01:43:36.373Z,23.30
2023-04-18T01:46:07.585Z,20.60
2023-04-18T01:48:39.138Z,24.30
2023-04-18T01:51:10.435Z,22.40
2023-04-18T01:53:42.159Z,23.20
2023-04-18T01:56:13.225Z,22.50
2023-04-18T01:58:43.977Z,22.70
2023-04-18T02:01:16.362Z,25.90
2023-04-18T02:03:47.340Z,20.50
2023-04-18T02:06:18.334Z,24.00
2023-04-18T02:08:51.523Z,21.20
2023-04-18T02:11:22.217Z,24.80
2023-04-18T02:13:53.345Z,22.70
2023-04-18T02:16:24.096Z,23.10
2023-04-18T02:18:54.808Z,22.30
2023-04-18T02:21:25.556Z,22.50
2023-04-18T02:23:56.248Z,24.10
2023-04-18T02:26:27.014Z,22.50
2023-04-18T02:29:01.553Z,22.60
2023-04-18T02:31:33.304Z,22.60
2023-04-18T02:34:04.015Z,23.00
2023-04-18T02:36:35.484Z,24.10
2023-04-18T02:39:06.724Z,23.60
2023-04-18T02:41:39.412Z,23.40
2023-04-18T02:44:11.246Z,26.70
2023-04-18T02:46:46.003Z,25.70
2023-04-18T02:49:16.906Z,23.90
2023-04-18T02:51:48.725Z,22.30
2023-04-18T02:54:20.026Z,28.50
2023-04-18T02:57:11.074Z,25.70
2023-04-18T02:59:59.796Z,21.70
2023-04-18T03:02:42.628Z,34.80
2023-04-18T03:05:24.924Z,27.10
2023-04-18T03:07:57.518Z,31.10
2023-04-18T03:10:28.415Z,24.70
2023-04-18T03:12:59.682Z,29.60
2023-04-18T03:15:32.202Z,26.80
2023-04-18T03:18:03.148Z,30.90
2023-04-18T03:20:37.328Z,27.70
2023-04-18T03:23:10.291Z,25.70
2023-04-18T03:25:41.023Z,27.10
2023-04-18T03:28:11.912Z,26.00
2023-04-18T03:30:43.904Z,30.70
2023-04-18T03:33:17.209Z,24.30
2023-04-18T03:35:49.343Z,22.40
2023-04-18T03:38:20.083Z,28.60
2023-04-18T03:40:50.950Z,26.80
2023-04-18T03:43:27.178Z,24.50
2023-04-18T03:45:57.890Z,28.50
2023-04-18T03:48:29.882Z,25.30
2023-04-18T03:51:02.969Z,23.20
2023-04-18T03:53:34.729Z,23.70
2023-04-18T03:56:05.590Z,24.20
2023-04-18T03:58:48.946Z,28.30
2023-04-18T04:01:20.113Z,24.60
2023-04-18T04:03:51.264Z,21.80
2023-04-18T04:06:22.120Z,28.10
2023-04-18T04:08:52.909Z,38.30
2023-04-18T04:11:26.840Z,26.60
2023-04-18T04:13:57.768Z,25.10
2023-04-18T04:16:31.859Z,27.20
2023-04-18T04:19:03.358Z,29.10
2023-04-18T04:21:38.432Z,25.90
2023-04-18T04:24:10.452Z,27.50
2023-04-18T04:26:44.261Z,22.90
2023-04-18T04:29:19.134Z,27.10
2023-04-18T04:31:52.159Z,28.80
2023-04-18T04:34:35.880Z,27.90
2023-04-18T04:37:09.249Z,25.40
2023-04-18T04:39:46.313Z,25.90
2023-04-18T04:42:56.182Z,26.10
2023-04-18T04:45:33.198Z,26.20
2023-04-18T04:48:04.240Z,25.20
2023-04-18T04:50:38.545Z,28.80
2023-04-18T04:53:11.820Z,24.80
2023-04-18T04:55:42.987Z,29.80
2023-04-18T04:58:13.776Z,26.30
2023-04-18T05:01:09.259Z,25.50
2023-04-18T05:03:41.412Z,22.90
2023-04-18T05:06:12.477Z,27.90
2023-04-18T05:08:43.342Z,25.00
2023-04-18T05:11:14.037Z,24.30
2023-04-18T05:13:44.952Z,24.30
2023-04-18T05:16:15.723Z,25.80
2023-04-18T05:18:46.505Z,27.70
2023-04-18T05:21:17.130Z,24.60
2023-04-18T05:23:47.891Z,31.50
2023-04-18T05:26:18.810Z,27.60
2023-04-18T05:28:50.299Z,26.40
2023-04-18T05:31:21.061Z,25.20
2023-04-18T05:33:51.726Z,22.00
2023-04-18T05:36:22.921Z,26.60
2023-04-18T05:38:53.708Z,26.10
2023-04-18T05:41:24.425Z,27.60
2023-04-18T05:44:04.873Z,24.90
2023-04-18T05:46:36.510Z,22.40
2023-04-18T05:49:07.261Z,26.10
2023-04-18T05:51:37.968Z,31.90
2023-04-18T05:54:08.687Z,25.60
2023-04-18T05:56:40.119Z,24.10
2023-04-18T05:59:10.822Z,25.20
2023-04-18T06:01:41.506Z,29.60
2023-04-18T06:04:12.473Z,33.20
2023-04-18T06:06:43.483Z,30.90
2023-04-18T06:09:14.263Z,26.00
2023-04-18T06:11:45.071Z,27.20
2023-04-18T06:14:16.052Z,29.00
2023-04-18T06:16:47.189Z,26.50
2023-04-18T06:19:17.947Z,23.10
2023-04-18T06:21:49.372Z,22.50
2023-04-18T06:24:20.172Z,22.40
2023-04-18T06:26:50.835Z,25.00
2023-04-18T06:29:23.232Z,24.20
2023-04-18T06:31:54.048Z,23.90
2023-04-18T06:34:24.746Z,22.50
2023-04-18T06:36:55.860Z,27.40
2023-04-18T06:39:28.005Z,23.50
2023-04-18T06:41:59.912Z,22.30
2023-04-18T06:44:32.696Z,23.30
2023-04-18T06:47:03.645Z,21.90
2023-04-18T06:49:34.413Z,27.40
2023-04-18T06:52:07.684Z,22.80
2023-04-18T06:54:38.403Z,26.40
2023-04-18T06:57:09.310Z,26.70
2023-04-18T06:59:41.439Z,20.70
2023-04-18T07:02:12.229Z,21.00
2023-04-18T07:04:43.003Z,22.00
2023-04-18T07:07:13.835Z,27.10
2023-04-18T07:09:44.934Z,25.70
2023-04-18T07:12:15.636Z,21.90
2023-04-18T07:14:46.277Z,24.20
2023-04-18T07:17:17.901Z,23.10
2023-04-18T07:19:48.895Z,24.40
2023-04-18T07:22:19.603Z,29.80
2023-04-18T07:24:50.294Z,24.00
2023-04-18T07:27:20.986Z,32.70
2023-04-18T07:29:51.756Z,21.40
2023-04-18T07:32:22.475Z,25.30
2023-04-18T07:34:53.834Z,21.80
2023-04-18T07:37:26.570Z,23.60
2023-04-18T07:40:00.560Z,28.00
2023-04-18T07:42:31.219Z,22.60
2023-04-18T07:45:02.036Z,24.60
2023-04-18T07:47:33.463Z,22.30
2023-04-18T07:50:05.158Z,21.90
2023-04-18T07:52:36.797Z,28.30
2023-04-18T07:55:10.025Z,31.10
2023-04-18T07:57:41.167Z,28.50
2023-04-18T08:00:14.808Z,31.80
2023-04-18T08:02:45.825Z,21.50
2023-04-18T08:05:16.905Z,26.10
2023-04-18T08:07:47.610Z,25.20
2023-04-18T08:10:18.420Z,25.70
2023-04-18T08:12:49.075Z,21.30
2023-04-18T08:15:19.811Z,21.90
2023-04-18T08:17:51.607Z,22.80
2023-04-18T08:20:22.742Z,23.40
2023-04-18T08:23:06.278Z,23.20
2023-04-18T08:25:38.682Z,24.90
2023-04-18T08:28:09.666Z,27.50
2023-04-18T08:30:40.427Z,28.60
2023-04-18T08:33:11.171Z,18.40
2023-04-18T08:35:41.913Z,21.70
2023-04-18T08:38:13.440Z,24.30
2023-04-18T08:40:45.680Z,18.60
2023-04-18T08:43:17.260Z,21.70
2023-04-18T08:45:48.579Z,21.90
2023-04-18T08:48:19.835Z,22.50
2023-04-18T08:50:51.380Z,21.70
2023-04-18T08:53:22.087Z,18.40
2023-04-18T08:56:00.429Z,20.20
2023-04-18T08:58:32.583Z,16.70
2023-04-18T09:01:03.544Z,16.30
2023-04-18T09:03:40.775Z,17.60
2023-04-18T09:06:16.303Z,19.50
2023-04-18T09:09:11.094Z,25.10
2023-04-18T09:11:42.566Z,18.20
2023-04-18T09:14:26.612Z,20.00
2023-04-18T09:16:57.386Z,19.90
2023-04-18T09:19:29.197Z,20.30
2023-04-18T09:22:04.628Z,17.40
2023-04-18T09:24:35.664Z,20.60
2023-04-18T09:27:14.341Z,21.40
2023-04-18T09:29:49.478Z,17.50
2023-04-18T09:32:29.610Z,21.80
2023-04-18T09:35:05.008Z,18.70
2023-04-18T09:37:36.157Z,18.00
2023-04-18T09:40:19.209Z,17.30
2023-04-18T09:42:52.132Z,19.50
2023-04-18T09:45:23.907Z,20.20
2023-04-18T09:47:55.897Z,18.40
2023-04-18T09:50:26.750Z,21.70
2023-04-18T09:52:58.406Z,16.60
2023-04-18T09:55:31.555Z,16.70
2023-04-18T09:58:05.040Z,18.40
2023-04-18T10:00:38.561Z,17.30
2023-04-18T10:03:11.769Z,15.40
2023-04-18T10:05:43.621Z,23.70
2023-04-18T10:08:16.119Z,19.20
2023-04-18T10:10:47.218Z,20.00
2023-04-18T10:13:19.252Z,23.10
2023-04-18T10:15:52.490Z,18.90
2023-04-18T10:18:25.718Z,22.40
2023-04-18T10:21:04.274Z,17.40
2023-04-18T10:23:39.969Z,15.60
2023-04-18T10:26:12.055Z,15.70
2023-04-18T10:28:54.788Z,18.50
2023-04-18T10:31:27.218Z,29.40
2023-04-18T10:34:05.170Z,18.30
2023-04-18T10:36:36.785Z,18.50
2023-04-18T10:39:25.679Z,21.40
2023-04-18T10:41:56.462Z,18.40
2023-04-18T10:44:27.672Z,17.80
2023-04-18T10:47:24.022Z,20.60
2023-04-18T10:50:01.234Z,18.00
2023-04-18T10:52:32.567Z,16.80
2023-04-18T10:55:16.580Z,23.00
2023-04-18T10:57:48.577Z,17.30
2023-04-18T11:00:21.799Z,15.90
2023-04-18T11:02:56.082Z,17.10
2023-04-18T11:05:29.425Z,22.90
2023-04-18T11:08:00.258Z,18.90
2023-04-18T11:10:31.139Z,18.90
2023-04-18T11:13:04.864Z,20.00
2023-04-18T11:15:40.020Z,17.70
2023-04-18T11:20:49.198Z,16.50
2023-04-18T11:23:25.121Z,14.10
2023-04-18T11:25:58.337Z,18.20
2023-04-18T11:28:29.745Z,13.80
2023-04-18T11:31:04.054Z,19.60
2023-04-18T11:33:37.799Z,15.00
2023-04-18T11:36:09.725Z,13.40
2023-04-18T11:38:43.007Z,14.10
2023-04-18T11:41:16.718Z,18.20
2023-04-18T11:43:47.876Z,13.30
2023-04-18T11:46:34.911Z,12.30
2023-04-18T11:49:08.055Z,16.90
2023-04-18T11:51:51.813Z,15.10
2023-04-18T11:54:43.370Z,18.20
2023-04-18T11:57:29.061Z,18.40
2023-04-18T12:00:06.985Z,16.50
2023-04-18T12:02:44.677Z,21.20
2023-04-18T12:05:25.750Z,11.10
2023-04-18T12:07:56.999Z,13.40
2023-04-18T12:10:29.886Z,16.30
2023-04-18T12:13:01.248Z,12.80
2023-04-18T12:15:33.696Z,14.90
2023-04-18T12:18:08.326Z,12.90
2023-04-18T12:20:46.437Z,18.20
2023-04-18T12:26:24.259Z,16.40
2023-04-18T12:28:55.119Z,16.30
2023-04-18T12:31:28.041Z,13.60
2023-04-18T12:34:00.199Z,15.20
2023-04-18T12:36:30.958Z,13.10
2023-04-18T12:39:01.766Z,16.60
2023-04-18T12:41:32.480Z,13.60
2023-04-18T12:44:03.679Z,13.10
2023-04-18T12:46:35.822Z,12.00
2023-04-18T12:49:06.918Z,17.60
2023-04-18T12:51:37.840Z,11.50
2023-04-18T12:54:11.534Z,13.40
2023-04-18T12:56:42.449Z,15.30
2023-04-18T12:59:13.445Z,13.20
2023-04-18T13:01:44.608Z,11.10
2023-04-18T13:04:16.042Z,11.20
2023-04-18T13:06:47.031Z,17.40
2023-04-18T13:09:18.634Z,11.30
2023-04-18T13:12:02.358Z,12.80
2023-04-18T13:14:33.197Z,12.60
2023-04-18T13:17:04.313Z,14.80
2023-04-18T13:19:35.287Z,13.40
2023-04-18T13:22:06.088Z,11.60
2023-04-18T13:24:37.666Z,12.70
2023-04-18T13:27:11.481Z,11.80
2023-04-18T13:29:44.167Z,12.50
2023-04-18T13:32:15.305Z,16.50
2023-04-18T13:34:48.846Z,14.30
2023-04-18T13:37:19.928Z,14.80
2023-04-18T13:39:50.888Z,10.90
2023-04-18T13:45:11.596Z,8.40
2023-04-18T13:47:42.911Z,13.10
2023-04-18T13:50:14.013Z,17.70
2023-04-18T13:52:44.972Z,13.80
2023-04-18T13:55:16.235Z,10.60
2023-04-18T13:57:47.377Z,13.10
2023-04-18T14:00:20.511Z,11.20
2023-04-18T14:02:51.971Z,8.40
2023-04-18T14:05:23.058Z,10.20
2023-04-18T14:07:53.882Z,7.90
2023-04-18T14:10:24.742Z,9.30
2023-04-18T14:12:55.620Z,9.70
2023-04-18T14:18:50.938Z,9.20
2023-04-18T14:21:21.588Z,11.80
2023-04-18T14:23:54.023Z,6.40
2023-04-18T14:26:24.976Z,7.70
2023-04-18T14:28:55.641Z,14.10
2023-04-18T14:31:28.575Z,9.10
2023-04-18T14:33:59.946Z,9.40
2023-04-18T14:36:31.043Z,10.20
2023-04-18T14:39:01.840Z,10.30
2023-04-18T14:41:33.043Z,7.10
2023-04-18T14:44:04.294Z,11.10
2023-04-18T14:46:35.025Z,11.10
2023-04-18T14:49:05.916Z,13.60
2023-04-18T14:51:36.790Z,7.60
2023-04-18T14:54:07.575Z,8.00
2023-04-18T14:56:38.309Z,10.40
2023-04-18T14:59:09.058Z,8.90
2023-04-18T15:01:41.616Z,10.50
2023-04-18T15:04:13.286Z,11.60
2023-04-18T15:06:44.440Z,8.10
2023-04-18T15:09:16.536Z,9.70
2023-04-18T15:11:49.605Z,6.70
2023-04-18T15:14:20.276Z,6.90
2023-04-18T15:16:52.900Z,10.90
2023-04-18T15:19:23.640Z,5.90
2023-04-18T15:21:54.676Z,10.70
2023-04-18T15:24:26.436Z,5.30
2023-04-18T15:26:58.757Z,5.70
2023-04-18T15:29:29.582Z,6.60
2023-04-18T15:32:01.621Z,7.20
2023-04-18T15:34:32.462Z,6.40
2023-04-18T15:37:04.113Z,7.40
2023-04-18T15:39:34.885Z,7.30
2023-04-18T15:42:05.575Z,7.30
2023-04-18T15:44:36.212Z,5.70
2023-04-18T15:47:08.199Z,6.60
2023-04-18T15:49:38.957Z,14.60
2023-04-18T15:52:09.645Z,8.50
2023-04-18T15:54:42.971Z,6.30
2023-04-18T15:57:13.760Z,5.60
2023-04-18T15:59:44.569Z,11.10
2023-04-18T16:02:15.383Z,13.80
2023-04-18T16:04:46.480Z,7.10
2023-04-18T16:07:17.596Z,7.80
2023-04-18T16:09:48.438Z,6.80
2023-04-18T16:12:19.172Z,7.50
2023-04-18T16:14:50.766Z,5.80
2023-04-18T16:17:21.851Z,9.70
2023-04-18T16:20:20.974Z,5.90
2023-04-18T16:22:55.198Z,13.00
2023-04-18T16:25:26.486Z,11.30
2023-04-18T16:27:57.447Z,14.70
2023-04-18T16:30:28.169Z,9.10
2023-04-18T16:32:59.162Z,9.30
2023-04-18T16:35:30.200Z,8.00
2023-04-18T16:38:00.964Z,11.00
2023-04-18T16:40:34.958Z,7.80
2023-04-18T16:43:05.653Z,6.00
2023-04-18T16:45:39.140Z,8.10
2023-04-18T16:48:12.606Z,7.70
2023-04-18T16:50:45.643Z,6.40
2023-04-18T16:53:16.901Z,7.70
2023-04-18T16:55:47.840Z,9.60
2023-04-18T16:58:29.740Z,10.00
2023-04-18T17:01:02.217Z,6.80
2023-04-18T17:03:34.934Z,8.60
2023-04-18T17:06:07.121Z,7.30
2023-04-18T17:08:38.019Z,12.00
2023-04-18T17:11:08.940Z,8.60
2023-04-18T17:13:39.728Z,10.40
2023-04-18T17:16:11.140Z,8.90
2023-04-18T17:18:43.014Z,8.00
2023-04-18T17:21:14.292Z,8.70
2023-04-18T17:23:45.023Z,8.80
2023-04-18T17:26:16.055Z,9.20
2023-04-18T17:28:46.705Z,8.70
2023-04-18T17:31:17.622Z,8.90
2023-04-18T17:33:50.599Z,5.90
2023-04-18T17:36:21.342Z,6.20
2023-04-18T17:38:52.026Z,8.40
2023-04-18T17:41:23.797Z,8.10
2023-04-18T17:43:54.513Z,9.80
2023-04-18T17:46:25.237Z,7.60
2023-04-18T17:48:56.039Z,13.10
2023-04-18T17:51:27.402Z,16.70
2023-04-18T17:53:58.401Z,9.60
2023-04-18T17:56:30.581Z,11.50
2023-04-18T17:59:02.685Z,12.40
2023-04-18T18:01:34.789Z,9.10
2023-04-18T18:04:05.920Z,7.80
2023-04-18T18:06:37.242Z,8.00
2023-04-18T18:09:08.240Z,11.40
2023-04-18T18:11:39.998Z,9.70
2023-04-18T18:14:10.858Z,14.50
2023-04-18T18:16:42.704Z,7.20
2023-04-18T18:19:14.746Z,8.60
2023-04-18T18:21:47.321Z,7.60
2023-04-18T18:24:18.758Z,7.80
2023-04-18T18:26:51.520Z,16.50
2023-04-18T18:29:23.274Z,8.00
2023-04-18T18:31:54.721Z,7.70
2023-04-18T18:34:27.081Z,9.80
2023-04-18T18:36:58.341Z,8.00
2023-04-18T18:39:29.116Z,11.50
2023-04-18T18:41:59.937Z,10.00
2023-04-18T18:44:30.678Z,7.70
2023-04-18T18:47:02.211Z,10.20
2023-04-18T18:49:33.025Z,9.80
2023-04-18T18:52:05.382Z,15.30
2023-04-18T18:54:36.060Z,9.00
2023-04-18T18:57:08.513Z,10.80
2023-04-18T18:59:39.375Z,8.30
2023-04-18T19:02:10.359Z,12.60
2023-04-18T19:04:41.182Z,10.30
2023-04-18T19:07:13.062Z,9.50
2023-04-18T19:09:43.877Z,10.70
2023-04-18T19:12:14.574Z,8.80
2023-04-18T19:14:47.268Z,12.00
2023-04-18T19:17:22.118Z,9.80
2023-04-18T19:19:53.578Z,9.50
2023-04-18T19:22:25.275Z,12.40
2023-04-18T19:24:56.445Z,9.80
2023-04-18T19:27:27.864Z,9.50
2023-04-18T19:29:59.116Z,10.40
2023-04-18T19:32:31.077Z,10.60
2023-04-18T19:35:02.292Z,12.00
2023-04-18T19:37:33.024Z,9.20
2023-04-18T19:40:04.519Z,11.70
2023-04-18T19:42:35.488Z,12.90
2023-04-18T19:45:07.824Z,9.30
2023-04-18T19:47:38.644Z,12.40
2023-04-18T19:50:11.749Z,13.50
2023-04-18T19:52:42.682Z,10.10
2023-04-18T19:55:14.052Z,9.20
2023-04-18T19:57:45.019Z,7.40
2023-04-18T20:00:17.431Z,9.60
2023-04-18T20:02:48.747Z,9.70
2023-04-18T20:05:19.845Z,12.30
2023-04-18T20:07:50.900Z,8.90
2023-04-18T20:10:23.328Z,8.50
2023-04-18T20:12:53.982Z,11.30
2023-04-18T20:15:24.793Z,11.40
2023-04-18T20:17:55.553Z,8.60
2023-04-18T20:20:26.618Z,9.20
2023-04-18T20:22:57.385Z,9.10
2023-04-18T20:25:28.072Z,9.80
2023-04-18T20:27:58.839Z,14.90
2023-04-18T20:30:29.915Z,10.10
2023-04-18T20:33:00.713Z,9.20
2023-04-18T20:35:31.574Z,11.50
2023-04-18T20:38:02.356Z,9.80
2023-04-18T20:40:33.360Z,12.00
2023-04-18T20:43:04.518Z,12.10
2023-04-18T20:45:37.461Z,10.00
2023-04-18T20:48:08.779Z,10.10
2023-04-18T20:50:41.105Z,11.90
2023-04-18T20:53:12.571Z,13.80
2023-04-18T20:55:43.277Z,8.10
2023-04-18T20:58:14.668Z,10.10
2023-04-18T21:00:46.293Z,10.70
2023-04-18T21:03:18.190Z,10.80
2023-04-18T21:05:49.134Z,12.50
2023-04-18T21:08:20.622Z,10.70
2023-04-18T21:10:51.794Z,9.90
2023-04-18T21:13:22.931Z,17.00
2023-04-18T21:15:53.728Z,10.40
2023-04-18T21:18:24.724Z,10.10
2023-04-18T21:20:55.873Z,10.70
2023-04-18T21:23:27.026Z,9.80
2023-04-18T21:25:58.164Z,9.80
2023-04-18T21:28:29.010Z,10.80
2023-04-18T21:30:59.817Z,18.10
2023-04-18T21:33:30.672Z,13.10
2023-04-18T21:36:01.588Z,11.30
2023-04-18T21:38:32.624Z,11.60
2023-04-18T21:41:03.896Z,13.70
2023-04-18T21:43:35.153Z,11.50
2023-04-18T21:46:06.147Z,10.00
2023-04-18T21:48:40.306Z,10.10
2023-04-18T21:51:11.653Z,10.80
2023-04-18T21:53:53.059Z,8.80
2023-04-18T21:56:24.065Z,10.30
2023-04-18T21:58:55.013Z,11.80
2023-04-18T22:01:33.766Z,10.50
2023-04-18T22:04:05.340Z,8.40
2023-04-18T22:06:36.593Z,8.30
2023-04-18T22:09:08.362Z,8.90
2023-04-18T22:11:39.335Z,11.60
2023-04-18T22:14:10.968Z,9.40
2023-04-18T22:16:42.488Z,9.20
2023-04-18T22:19:15.097Z,8.00
2023-04-18T22:21:46.031Z,8.00
2023-04-18T22:24:18.389Z,11.50
2023-04-18T22:26:49.359Z,11.80
2023-04-18T22:29:20.272Z,9.20
2023-04-18T22:31:51.255Z,10.90
2023-04-18T22:34:22.305Z,9.50
2023-04-18T22:36:53.042Z,10.20
2023-04-18T22:39:27.042Z,8.30
2023-04-18T22:41:57.781Z,10.00
2023-04-18T22:44:29.461Z,10.90
2023-04-18T22:47:00.270Z,10.60
2023-04-18T22:49:31.210Z,10.30
2023-04-18T22:52:02.093Z,9.40
2023-04-18T22:54:32.978Z,11.70
2023-04-18T22:57:03.942Z,7.60
2023-04-18T22:59:34.994Z,10.20
2023-04-18T23:02:05.799Z,9.40
2023-04-18T23:04:36.777Z,8.20
2023-04-18T23:07:07.562Z,8.40
2023-04-18T23:09:38.288Z,10.40
2023-04-18T23:12:09.315Z,8.20
2023-04-18T23:14:41.882Z,12.10
2023-04-18T23:17:12.596Z,12.50
2023-04-18T23:19:45.167Z,14.40
2023-04-18T23:22:15.988Z,12.00
2023-04-18T23:24:46.747Z,9.80
2023-04-18T23:27:17.664Z,8.40
2023-04-18T23:29:49.752Z,9.50
2023-04-18T23:32:20.409Z,9.50
2023-04-18T23:34:51.269Z,9.90
2023-04-18T23:37:21.980Z,9.50
2023-04-18T23:39:52.654Z,10.80
2023-04-18T23:42:23.453Z,8.10
2023-04-18T23:44:54.645Z,10.70
2023-04-18T23:47:25.562Z,10.20
2023-04-18T23:49:56.349Z,11.30
2023-04-18T23:52:27.042Z,9.80
2023-04-18T23:54:59.733Z,10.70
2023-04-18T23:57:30.450Z,8.70
